createdAt,value
2023-01-17T00:02:04.330Z,96763.16
2023-01-17T00:05:24.997Z,96760.69
2023-01-17T00:08:55.117Z,96754.69
2023-01-17T00:11:57.653Z,96755.50
2023-01-17T00:15:00.614Z,96761.19
2023-01-17T00:18:02.085Z,96753.28
2023-01-17T00:21:22.121Z,96757.88
2023-01-17T00:24:41.955Z,96757.56
2023-01-17T00:27:43.416Z,96768.38
2023-01-17T00:30:45.705Z,96772.97
2023-01-17T00:33:47.127Z,96778.84
2023-01-17T00:36:48.559Z,96779.69
2023-01-17T00:39:50.006Z,96788.06
2023-01-17T00:42:51.442Z,96783.47
2023-01-17T00:46:12.023Z,96780.75
2023-01-17T00:49:32.260Z,96783.69
2023-01-17T00:52:52.287Z,96779.34
2023-01-17T00:56:12.025Z,96784.19
2023-01-17T00:59:31.926Z,96775.72
2023-01-17T01:02:53.432Z,96792.78
2023-01-17T01:06:13.374Z,96801.38
2023-01-17T01:09:33.209Z,96805.97
2023-01-17T01:12:53.201Z,96813.50
2023-01-17T01:16:13.168Z,96814.56
2023-01-17T01:19:33.391Z,96826.44
2023-01-17T01:22:53.399Z,96810.22
2023-01-17T01:26:13.260Z,96831.88
2023-01-17T01:29:33.172Z,96821.84
2023-01-17T01:32:53.988Z,96826.22
2023-01-17T01:35:58.374Z,96837.88
2023-01-17T01:38:59.977Z,96841.63
2023-01-17T01:42:03.137Z,96845.97
2023-01-17T01:45:29.253Z,96847.03
2023-01-17T01:48:41.877Z,96847.88
2023-01-17T01:51:55.809Z,96849.72
2023-01-17T01:55:07.285Z,96863.25
2023-01-17T01:58:14.974Z,96862.66
2023-01-17T02:01:17.905Z,96869.97
2023-01-17T02:04:20.651Z,96869.97
2023-01-17T02:07:28.539Z,96875.59
2023-01-17T02:10:39.127Z,96885.56
2023-01-17T02:13:40.893Z,96888.53
2023-01-17T02:16:44.237Z,96886.88
2023-01-17T02:20:04.226Z,96879.34
2023-01-17T02:23:17.841Z,96895.84
2023-01-17T02:26:34.357Z,96894.19
2023-01-17T02:29:47.889Z,96900.66
2023-01-17T02:33:14.126Z,96898.78
2023-01-17T02:36:56.458Z,96899.00
2023-01-17T02:40:04.705Z,96903.00
2023-01-17T02:43:11.245Z,96911.97
2023-01-17T02:46:12.770Z,96909.47
2023-01-17T02:49:17.939Z,96919.47
2023-01-17T02:52:37.466Z,96909.69
2023-01-17T02:56:00.103Z,96914.56
2023-01-17T02:59:15.394Z,96912.66
2023-01-17T03:02:40.789Z,96914.78
2023-01-17T03:05:57.899Z,96916.66
2023-01-17T03:08:59.229Z,96933.13
2023-01-17T03:12:00.774Z,96951.47
2023-01-17T03:15:02.583Z,96957.13
2023-01-17T03:18:11.181Z,96956.06
2023-01-17T03:21:12.710Z,96965.47
2023-01-17T03:24:14.168Z,96968.16
2023-01-17T03:27:15.711Z,96973.81
2023-01-17T03:30:17.737Z,96974.38
2023-01-17T03:33:19.396Z,96993.31
2023-01-17T03:36:20.843Z,96988.75
2023-01-17T03:39:22.365Z,97001.22
2023-01-17T03:42:23.923Z,97003.91
2023-01-17T03:45:25.397Z,96999.56
2023-01-17T03:48:26.849Z,97001.44
2023-01-17T03:51:28.428Z,97001.22
2023-01-17T03:54:29.932Z,97001.22
2023-01-17T03:57:31.443Z,97003.09
2023-01-17T04:00:32.966Z,97000.13
2023-01-17T04:03:34.494Z,96995.81
2023-01-17T04:06:35.985Z,96992.28
2023-01-17T04:09:37.503Z,96991.22
2023-01-17T04:12:38.990Z,96999.09
2023-01-17T04:15:40.634Z,97005.09
2023-01-17T04:18:42.280Z,97012.97
2023-01-17T04:21:43.886Z,97017.91
2023-01-17T04:24:45.401Z,97017.69
2023-01-17T04:27:46.916Z,97032.63
2023-01-17T04:30:48.456Z,97041.34
2023-01-17T04:33:49.944Z,97042.75
2023-01-17T04:36:51.490Z,97037.94
2023-01-17T04:39:52.965Z,97033.13
2023-01-17T04:42:54.477Z,97045.59
2023-01-17T04:45:57.442Z,97036.19
2023-01-17T04:49:00.411Z,97055.94
2023-01-17T04:52:01.923Z,97072.19
2023-01-17T04:55:03.653Z,97076.56
2023-01-17T04:58:05.176Z,97070.06
2023-01-17T05:01:08.318Z,97071.47
2023-01-17T05:04:09.908Z,97072.56
2023-01-17T05:07:11.394Z,97082.31
2023-01-17T05:10:12.941Z,97093.94
2023-01-17T05:13:14.976Z,97107.47
2023-01-17T05:16:19.676Z,97127.03
2023-01-17T05:19:21.644Z,97135.34
2023-01-17T05:22:23.166Z,97144.31
2023-01-17T05:25:27.614Z,97149.50
2023-01-17T05:28:29.210Z,97163.28
2023-01-17T05:31:30.681Z,97163.50
2023-01-17T05:34:32.334Z,97181.38
2023-01-17T05:37:33.812Z,97187.03
2023-01-17T05:40:35.425Z,97195.16
2023-01-17T05:43:36.876Z,97208.06
2023-01-17T05:46:38.424Z,97214.31
2023-01-17T05:49:39.980Z,97221.00
2023-01-17T05:52:41.612Z,97238.31
2023-01-17T05:55:43.895Z,97243.72
2023-01-17T05:58:45.513Z,97243.72
2023-01-17T06:01:47.058Z,97250.78
2023-01-17T06:04:48.605Z,97260.56
2023-01-17T06:07:50.821Z,97265.72
2023-01-17T06:10:52.390Z,97279.84
2023-01-17T06:13:53.834Z,97276.94
2023-01-17T06:16:55.279Z,97292.09
2023-01-17T06:19:56.807Z,97292.69
2023-01-17T06:23:01.311Z,97300.56
2023-01-17T06:26:04.433Z,97302.47
2023-01-17T06:29:05.931Z,97315.78
2023-01-17T06:32:07.450Z,97325.78
2023-01-17T06:35:09.272Z,97329.91
2023-01-17T06:38:10.796Z,97341.78
2023-01-17T06:41:12.241Z,97338.47
2023-01-17T06:44:13.783Z,97344.72
2023-01-17T06:47:15.265Z,97347.66
2023-01-17T06:50:16.970Z,97360.09
2023-01-17T06:53:18.474Z,97353.28
2023-01-17T06:56:20.607Z,97367.66
2023-01-17T06:59:22.114Z,97372.47
2023-01-17T07:02:23.570Z,97378.09
2023-01-17T07:05:25.214Z,97381.88
2023-01-17T07:08:26.750Z,97384.78
2023-01-17T07:11:28.360Z,97390.19
2023-01-17T07:14:29.951Z,97395.84
2023-01-17T07:17:31.422Z,97400.66
2023-01-17T07:20:33.271Z,97404.41
2023-01-17T07:23:34.735Z,97418.19
2023-01-17T07:26:37.970Z,97415.66
2023-01-17T07:29:39.419Z,97417.75
2023-01-17T07:32:40.932Z,97419.63
2023-01-17T07:35:42.987Z,97426.09
2023-01-17T07:38:48.703Z,97427.13
2023-01-17T07:41:50.192Z,97423.81
2023-01-17T07:44:54.057Z,97426.78
2023-01-17T07:47:58.685Z,97440.31
2023-01-17T07:51:00.278Z,97443.22
2023-01-17T07:54:01.738Z,97436.38
2023-01-17T07:57:03.800Z,97442.59
2023-01-17T08:00:05.934Z,97449.09
2023-01-17T08:03:17.431Z,97450.97
2023-01-17T08:06:22.222Z,97448.72
2023-01-17T08:09:23.712Z,97458.69
2023-01-17T08:12:25.983Z,97465.38
2023-01-17T08:15:27.536Z,97468.31
2023-01-17T08:18:29.943Z,97459.38
2023-01-17T08:21:31.513Z,97454.38
2023-01-17T08:24:33.253Z,97457.09
2023-01-17T08:27:36.234Z,97463.56
2023-01-17T08:30:38.004Z,97463.78
2023-01-17T08:33:39.481Z,97470.25
2023-01-17T08:36:42.832Z,97484.84
2023-01-17T08:39:44.328Z,97485.88
2023-01-17T08:42:54.342Z,97496.69
2023-01-17T08:45:56.044Z,97505.25
2023-01-17T08:48:59.014Z,97506.06
2023-01-17T08:52:00.577Z,97521.69
2023-01-17T08:55:02.251Z,97532.75
2023-01-17T08:58:03.722Z,97531.91
2023-01-17T09:01:06.431Z,97536.47
2023-01-17T09:04:08.958Z,97543.75
2023-01-17T09:07:10.662Z,97542.13
2023-01-17T09:10:12.479Z,97546.47
2023-01-17T09:13:14.026Z,97551.66
2023-01-17T09:16:15.556Z,97561.44
2023-01-17T09:19:17.100Z,97556.84
2023-01-17T09:22:18.691Z,97553.31
2023-01-17T09:25:20.157Z,97549.56
2023-01-17T09:28:21.900Z,97551.44
2023-01-17T09:31:24.409Z,97555.00
2023-01-17T09:34:26.643Z,97555.81
2023-01-17T09:37:28.157Z,97549.56
2023-01-17T09:40:30.129Z,97559.34
2023-01-17T09:43:39.003Z,97560.78
2023-01-17T09:46:46.590Z,97570.53
2023-01-17T09:49:48.044Z,97568.69
2023-01-17T09:52:49.616Z,97571.59
2023-01-17T09:56:19.552Z,97577.38
2023-01-17T09:59:33.152Z,97588.19
2023-01-17T10:02:46.332Z,97586.09
2023-01-17T10:06:01.222Z,97589.63
2023-01-17T10:09:12.210Z,97585.91
2023-01-17T10:12:19.858Z,97586.50
2023-01-17T10:15:36.118Z,97590.88
2023-01-17T10:19:03.833Z,97588.16
2023-01-17T10:22:23.357Z,97596.06
2023-01-17T10:25:38.377Z,97606.03
2023-01-17T10:28:46.668Z,97604.75
2023-01-17T10:31:54.207Z,97601.03
2023-01-17T10:35:02.136Z,97601.63
2023-01-17T10:38:10.318Z,97600.59
2023-01-17T10:41:21.428Z,97602.00
2023-01-17T10:44:38.555Z,97597.22
2023-01-17T10:47:44.342Z,97602.38
2023-01-17T10:50:59.551Z,97611.75
2023-01-17T10:54:04.158Z,97599.03
2023-01-17T10:57:16.043Z,97614.03
2023-01-17T11:00:40.033Z,97613.81
2023-01-17T11:03:43.950Z,97617.34
2023-01-17T11:06:57.854Z,97615.25
2023-01-17T11:09:59.849Z,97615.03
2023-01-17T11:13:01.565Z,97614.00
2023-01-17T11:16:27.543Z,97614.59
2023-01-17T11:19:36.074Z,97630.00
2023-01-17T11:22:37.851Z,97631.66
2023-01-17T11:25:39.445Z,97636.88
2023-01-17T11:28:41.435Z,97633.31
2023-01-17T11:31:42.943Z,97638.50
2023-01-17T11:34:44.435Z,97634.97
2023-01-17T11:38:10.671Z,97639.94
2023-01-17T11:41:20.608Z,97634.53
2023-01-17T11:44:22.079Z,97640.16
2023-01-17T11:47:23.676Z,97645.34
2023-01-17T11:50:26.412Z,97646.66
2023-01-17T11:53:38.095Z,97642.44
2023-01-17T11:56:44.035Z,97647.69
2023-01-17T11:59:47.554Z,97648.59
2023-01-17T12:03:18.146Z,97641.22
2023-01-17T12:06:28.721Z,97643.25
2023-01-17T12:09:45.104Z,97654.38
2023-01-17T12:13:08.095Z,97638.38
2023-01-17T12:16:47.863Z,97635.72
2023-01-17T12:20:01.313Z,97642.81
2023-01-17T12:23:34.346Z,97635.53
2023-01-17T12:26:35.833Z,97639.91
2023-01-17T12:29:49.455Z,97637.84
2023-01-17T12:33:28.200Z,97641.16
2023-01-17T12:36:49.431Z,97644.88
2023-01-17T12:40:10.296Z,97639.91
2023-01-17T12:43:21.492Z,97640.13
2023-01-17T12:46:38.447Z,97645.31
2023-01-17T12:49:46.498Z,97646.97
2023-01-17T12:53:07.292Z,97645.09
2023-01-17T12:56:24.704Z,97641.28
2023-01-17T12:59:42.632Z,97649.13
2023-01-17T13:02:53.133Z,97642.47
2023-01-17T13:05:57.442Z,97658.00
2023-01-17T13:09:02.154Z,97655.72
2023-01-17T13:12:15.962Z,97650.75
2023-01-17T13:15:24.778Z,97659.06
2023-01-17T13:18:29.606Z,97653.28
2023-01-17T13:21:33.525Z,97665.72
2023-01-17T13:24:37.873Z,97664.25
2023-01-17T13:28:04.324Z,97663.00
2023-01-17T13:31:30.434Z,97669.91
2023-01-17T13:34:56.567Z,97672.88
2023-01-17T13:38:28.505Z,97672.28
2023-01-17T13:41:42.122Z,97674.78
2023-01-17T13:44:45.461Z,97679.34
2023-01-17T13:47:47.092Z,97680.59
2023-01-17T13:50:52.890Z,97687.84
2023-01-17T13:53:54.891Z,97696.59
2023-01-17T13:57:30.265Z,97698.44
2023-01-17T14:00:43.924Z,97714.19
2023-01-17T14:03:54.301Z,97706.09
2023-01-17T14:06:59.400Z,97716.88
2023-01-17T14:10:01.249Z,97707.34
2023-01-17T14:13:05.499Z,97719.16
2023-01-17T14:16:22.128Z,97719.34
2023-01-17T14:19:27.013Z,97717.06
2023-01-17T14:22:33.397Z,97721.22
2023-01-17T14:25:41.677Z,97716.22
2023-01-17T14:28:43.168Z,97717.03
2023-01-17T14:31:45.073Z,97715.78
2023-01-17T14:34:48.872Z,97715.59
2023-01-17T14:37:54.414Z,97714.34
2023-01-17T14:41:01.964Z,97713.28
2023-01-17T14:44:03.891Z,97717.66
2023-01-17T14:47:05.605Z,97717.66
2023-01-17T14:50:23.512Z,97716.41
2023-01-17T14:53:28.501Z,97716.41
2023-01-17T14:56:31.250Z,97724.28
2023-01-17T14:59:32.738Z,97724.28
2023-01-17T15:02:34.551Z,97718.66
2023-01-17T15:05:41.067Z,97717.41
2023-01-17T15:08:42.909Z,97709.09
2023-01-17T15:11:45.916Z,97716.78
2023-01-17T15:14:47.558Z,97710.13
2023-01-17T15:17:49.067Z,97711.75
2023-01-17T15:21:06.923Z,97708.44
2023-01-17T15:24:25.103Z,97705.53
2023-01-17T15:27:26.995Z,97704.47
2023-01-17T15:30:28.578Z,97713.19
2023-01-17T15:33:31.998Z,97702.38
2023-01-17T15:36:34.556Z,97707.56
2023-01-17T15:39:38.882Z,97713.59
2023-01-17T15:42:43.389Z,97725.03
2023-01-17T15:45:55.460Z,97727.28
2023-01-17T15:49:08.577Z,97728.72
2023-01-17T15:52:15.466Z,97733.69
2023-01-17T15:55:23.850Z,97736.81
2023-01-17T15:58:28.425Z,97743.69
2023-01-17T16:01:30.104Z,97745.94
2023-01-17T16:04:37.164Z,97751.75
2023-01-17T16:07:38.798Z,97759.44
2023-01-17T16:10:40.905Z,97759.84
2023-01-17T16:13:43.264Z,97771.91
2023-01-17T16:16:54.184Z,97777.50
2023-01-17T16:19:55.823Z,97776.75
2023-01-17T16:22:57.318Z,97774.31
2023-01-17T16:25:58.803Z,97774.34
2023-01-17T16:29:00.290Z,97777.88
2023-01-17T16:32:08.525Z,97776.00
2023-01-17T16:35:18.924Z,97777.63
2023-01-17T16:38:20.520Z,97778.41
2023-01-17T16:41:22.080Z,97778.41
2023-01-17T16:44:23.545Z,97788.34
2023-01-17T16:47:25.000Z,97790.66
2023-01-17T16:50:26.470Z,97790.41
2023-01-17T16:53:28.437Z,97797.28
2023-01-17T16:56:30.094Z,97795.19
2023-01-17T16:59:45.937Z,97797.69
2023-01-17T17:02:52.095Z,97803.69
2023-01-17T17:05:59.070Z,97798.91
2023-01-17T17:09:00.542Z,97802.44
2023-01-17T17:12:02.072Z,97802.03
2023-01-17T17:15:04.206Z,97795.75
2023-01-17T17:18:05.737Z,97810.53
2023-01-17T17:21:07.464Z,97814.69
2023-01-17T17:24:12.750Z,97813.84
2023-01-17T17:27:14.313Z,97806.34
2023-01-17T17:30:16.066Z,97808.44
2023-01-17T17:33:17.598Z,97809.03
2023-01-17T17:36:19.259Z,97805.06
2023-01-17T17:39:20.868Z,97804.66
2023-01-17T17:42:23.033Z,97805.25
2023-01-17T17:45:24.568Z,97811.09
2023-01-17T17:48:26.098Z,97810.03
2023-01-17T17:51:29.106Z,97802.31
2023-01-17T17:54:30.586Z,97807.28
2023-01-17T17:57:32.058Z,97812.47
2023-01-17T18:00:33.638Z,97815.78
2023-01-17T18:03:35.194Z,97828.06
2023-01-17T18:06:38.544Z,97825.16
2023-01-17T18:09:40.049Z,97824.72
2023-01-17T18:12:41.497Z,97836.97
2023-01-17T18:15:42.998Z,97835.09
2023-01-17T18:18:47.545Z,97837.38
2023-01-17T18:21:52.808Z,97837.97
2023-01-17T18:24:54.300Z,97840.47
2023-01-17T18:27:55.918Z,97849.00
2023-01-17T18:30:57.728Z,97839.59
2023-01-17T18:34:03.116Z,97836.69
2023-01-17T18:37:04.645Z,97842.09
2023-01-17T18:40:07.079Z,97846.44
2023-01-17T18:43:08.530Z,97848.13
2023-01-17T18:46:11.024Z,97858.53
2023-01-17T18:49:15.284Z,97849.13
2023-01-17T18:52:19.356Z,97867.03
2023-01-17T18:55:21.235Z,97865.16
2023-01-17T18:58:23.962Z,97865.75
2023-01-17T19:01:30.756Z,97866.38
2023-01-17T19:04:33.932Z,97869.09
2023-01-17T19:07:35.748Z,97874.50
2023-01-17T19:10:37.213Z,97878.66
2023-01-17T19:13:40.351Z,97882.81
2023-01-17T19:16:42.654Z,97881.75
2023-01-17T19:19:44.900Z,97883.44
2023-01-17T19:22:46.402Z,97879.66
2023-01-17T19:25:53.649Z,97879.22
2023-01-17T19:28:57.525Z,97887.97
2023-01-17T19:31:59.195Z,97892.56
2023-01-17T19:35:00.659Z,97893.16
2023-01-17T19:38:02.140Z,97897.53
2023-01-17T19:41:08.957Z,97898.16
2023-01-17T19:44:12.624Z,97900.84
2023-01-17T19:47:14.125Z,97903.56
2023-01-17T19:50:18.556Z,97901.47
2023-01-17T19:53:21.300Z,97905.00
2023-01-17T19:56:25.433Z,97911.03
2023-01-17T19:59:27.105Z,97922.69
2023-01-17T20:02:28.801Z,97922.09
2023-01-17T20:05:32.255Z,97916.50
2023-01-17T20:08:35.047Z,97922.34
2023-01-17T20:11:36.851Z,97918.41
2023-01-17T20:14:38.342Z,97921.34
2023-01-17T20:17:39.833Z,97920.75
2023-01-17T20:20:56.347Z,97937.59
2023-01-17T20:24:00.353Z,97937.38
2023-01-17T20:27:01.825Z,97934.91
2023-01-17T20:30:19.291Z,97940.94
2023-01-17T20:33:23.219Z,97943.41
2023-01-17T20:36:26.623Z,97939.88
2023-01-17T20:39:28.314Z,97939.06
2023-01-17T20:42:29.782Z,97937.38
2023-01-17T20:45:31.312Z,97940.09
2023-01-17T20:48:33.232Z,97936.56
2023-01-17T20:51:34.747Z,97940.09
2023-01-17T20:54:36.304Z,97944.69
2023-01-17T20:57:37.803Z,97946.56
2023-01-17T21:00:40.290Z,97946.56
2023-01-17T21:03:42.294Z,97945.75
2023-01-17T21:06:44.417Z,97947.63
2023-01-17T21:09:45.941Z,97945.13
2023-01-17T21:12:47.426Z,97940.75
2023-01-17T21:15:50.082Z,97943.47
2023-01-17T21:18:52.539Z,97941.78
2023-01-17T21:21:56.125Z,97954.50
2023-01-17T21:24:58.686Z,97942.03
2023-01-17T21:28:00.169Z,97942.03
2023-01-17T21:31:19.347Z,97948.28
2023-01-17T21:34:21.171Z,97950.34
2023-01-17T21:37:22.620Z,97947.84
2023-01-17T21:40:24.158Z,97947.84
2023-01-17T21:43:25.628Z,97948.72
2023-01-17T21:46:27.918Z,97954.94
2023-01-17T21:49:29.424Z,97961.41
2023-01-17T21:52:31.550Z,97963.28
2023-01-17T21:55:51.568Z,97967.88
2023-01-17T21:58:56.457Z,97965.16
2023-01-17T22:01:58.296Z,97971.84
2023-01-17T22:04:59.904Z,97976.44
2023-01-17T22:08:15.228Z,97982.69
2023-01-17T22:11:19.426Z,97991.63
2023-01-17T22:14:20.927Z,97993.50
2023-01-17T22:17:22.425Z,98005.19
2023-01-17T22:20:23.905Z,98010.59
2023-01-17T22:23:25.615Z,98010.59
2023-01-17T22:26:29.578Z,98012.47
2023-01-17T22:29:33.424Z,98012.91
2023-01-17T22:32:34.896Z,98016.88
2023-01-17T22:35:36.427Z,98017.31
2023-01-17T22:38:37.889Z,98017.53
2023-01-17T22:41:39.478Z,98017.53
2023-01-17T22:44:41.005Z,98030.44
2023-01-17T22:47:43.351Z,98037.75
2023-01-17T22:50:44.861Z,98030.03
2023-01-17T22:53:48.913Z,98031.94
2023-01-17T22:56:50.380Z,98027.78
2023-01-17T22:59:51.908Z,98036.91
2023-01-17T23:02:53.390Z,98033.38
2023-01-17T23:05:54.868Z,98033.59
2023-01-17T23:08:59.984Z,98038.19
2023-01-17T23:12:01.639Z,98040.25
2023-01-17T23:15:22.234Z,98035.06
2023-01-17T23:18:46.976Z,98036.09
2023-01-17T23:22:08.428Z,98029.03
2023-01-17T23:25:13.202Z,98042.78
2023-01-17T23:28:20.636Z,98043.84
2023-01-17T23:31:23.300Z,98046.16
2023-01-17T23:34:24.813Z,98042.56
2023-01-17T23:37:47.741Z,98044.47
2023-01-17T23:41:07.748Z,98040.53
2023-01-17T23:44:09.196Z,98032.59
2023-01-17T23:47:10.673Z,98037.41
2023-01-17T23:50:12.135Z,98037.63
2023-01-17T23:53:22.104Z,98033.25
2023-01-17T23:56:24.594Z,98030.53
2023-01-17T23:59:26.091Z,98028.88
